createdAt,value
2022-09-18T00:01:45.814Z,5.00
2022-09-18T00:04:16.116Z,5.00
2022-09-18T00:06:46.559Z,3.40
2022-09-18T00:09:16.467Z,5.00
2022-09-18T00:11:48.277Z,4.70
2022-09-18T00:14:22.797Z,4.30
2022-09-18T00:19:22.410Z,6.10
2022-09-18T00:21:52.646Z,4.60
2022-09-18T00:24:23.802Z,3.80
2022-09-18T00:26:53.343Z,4.10
2022-09-18T00:29:22.752Z,4.30
2022-09-18T00:31:52.252Z,4.10
2022-09-18T00:34:21.308Z,5.00
2022-09-18T00:36:51.189Z,3.80
2022-09-18T00:39:20.452Z,4.90
2022-09-18T00:41:50.391Z,5.30
2022-09-18T00:44:31.768Z,4.40
2022-09-18T00:47:27.433Z,3.80
2022-09-18T00:50:01.832Z,4.20
2022-09-18T00:52:49.743Z,4.20
2022-09-18T00:55:25.484Z,5.60
2022-09-18T00:57:58.430Z,6.60
2022-09-18T01:00:30.042Z,3.90
2022-09-18T01:03:01.852Z,7.30
2022-09-18T01:05:43.175Z,4.60
2022-09-18T01:08:33.742Z,4.90
2022-09-18T01:11:17.828Z,4.70
2022-09-18T01:14:05.555Z,4.60
2022-09-18T01:16:38.218Z,4.70
2022-09-18T01:19:26.581Z,5.70
2022-09-18T01:22:16.972Z,4.20
2022-09-18T01:25:15.152Z,5.40
2022-09-18T01:27:53.123Z,4.80
2022-09-18T01:30:22.336Z,5.80
2022-09-18T01:32:59.333Z,3.90
2022-09-18T01:35:53.848Z,6.40
2022-09-18T01:38:30.605Z,5.80
2022-09-18T01:41:03.173Z,5.30
2022-09-18T01:43:33.872Z,4.60
2022-09-18T01:46:09.355Z,4.90
2022-09-18T01:48:49.014Z,4.30
2022-09-18T01:51:25.362Z,4.60
2022-09-18T01:54:06.452Z,5.10
2022-09-18T01:56:40.875Z,4.10
2022-09-18T01:59:20.007Z,4.70
2022-09-18T02:01:52.404Z,3.80
2022-09-18T02:04:27.072Z,4.40
2022-09-18T02:09:38.733Z,4.90
2022-09-18T02:12:12.517Z,4.80
2022-09-18T02:14:53.579Z,4.50
2022-09-18T02:17:35.903Z,5.40
2022-09-18T02:20:11.626Z,4.40
2022-09-18T02:22:45.410Z,4.60
2022-09-18T02:25:19.353Z,4.20
2022-09-18T02:27:51.562Z,3.90
2022-09-18T02:30:21.533Z,4.80
2022-09-18T02:32:55.386Z,4.10
2022-09-18T02:35:33.012Z,4.70
2022-09-18T02:38:10.658Z,4.70
2022-09-18T02:40:51.006Z,5.10
2022-09-18T02:43:59.299Z,5.60
2022-09-18T02:46:34.425Z,5.80
2022-09-18T02:49:11.370Z,4.90
2022-09-18T02:52:03.152Z,5.90
2022-09-18T02:54:43.014Z,4.60
2022-09-18T02:57:19.812Z,4.90
2022-09-18T02:59:57.650Z,4.70
2022-09-18T03:02:27.000Z,6.70
2022-09-18T03:04:56.633Z,4.20
2022-09-18T03:07:26.092Z,4.90
2022-09-18T03:09:55.626Z,3.80
2022-09-18T03:12:24.804Z,5.30
2022-09-18T03:14:54.217Z,4.40
2022-09-18T03:17:23.602Z,4.50
2022-09-18T03:19:52.903Z,4.40
2022-09-18T03:22:22.103Z,3.20
2022-09-18T03:24:51.512Z,3.50
2022-09-18T03:27:20.725Z,5.70
2022-09-18T03:29:49.930Z,4.60
2022-09-18T03:32:19.102Z,4.10
2022-09-18T03:34:48.093Z,5.10
2022-09-18T03:37:17.182Z,3.70
2022-09-18T03:39:46.271Z,7.20
2022-09-18T03:42:15.576Z,5.20
2022-09-18T03:44:44.917Z,4.70
2022-09-18T03:47:14.116Z,4.20
2022-09-18T03:49:43.483Z,5.10
2022-09-18T03:52:12.585Z,5.00
2022-09-18T03:54:41.975Z,3.90
2022-09-18T03:57:11.285Z,4.40
2022-09-18T03:59:40.382Z,3.90
2022-09-18T04:02:09.573Z,4.60
2022-09-18T04:04:38.965Z,5.20
2022-09-18T04:07:09.553Z,4.50
2022-09-18T04:09:39.412Z,4.00
2022-09-18T04:12:08.594Z,5.40
2022-09-18T04:14:37.833Z,6.60
2022-09-18T04:17:07.112Z,3.40
2022-09-18T04:19:36.635Z,5.00
2022-09-18T04:22:06.375Z,6.80
2022-09-18T04:24:37.185Z,6.10
2022-09-18T04:27:07.810Z,5.70
2022-09-18T04:29:37.212Z,4.20
2022-09-18T04:32:06.788Z,4.10
2022-09-18T04:34:36.313Z,3.80
2022-09-18T04:37:10.206Z,4.00
2022-09-18T04:39:41.327Z,4.40
2022-09-18T04:42:10.573Z,5.70
2022-09-18T04:44:39.664Z,7.50
2022-09-18T04:47:08.874Z,5.10
2022-09-18T04:49:38.096Z,4.10
2022-09-18T04:52:07.363Z,3.90
2022-09-18T04:54:36.562Z,4.70
2022-09-18T04:57:06.345Z,4.50
2022-09-18T04:59:35.575Z,4.70
2022-09-18T05:02:04.867Z,4.30
2022-09-18T05:04:34.066Z,6.60
2022-09-18T05:07:05.394Z,5.50
2022-09-18T05:09:35.256Z,4.20
2022-09-18T05:12:04.537Z,3.50
2022-09-18T05:14:33.873Z,4.60
2022-09-18T05:17:03.353Z,4.80
2022-09-18T05:19:32.643Z,3.20
2022-09-18T05:22:01.988Z,3.60
2022-09-18T05:24:31.146Z,4.90
2022-09-18T05:27:00.452Z,4.20
2022-09-18T05:29:29.633Z,3.20
2022-09-18T05:31:58.933Z,4.10
2022-09-18T05:34:28.332Z,4.50
2022-09-18T05:36:57.532Z,4.20
2022-09-18T05:39:27.440Z,5.20
2022-09-18T05:41:56.389Z,4.70
2022-09-18T05:44:25.542Z,3.10
2022-09-18T05:46:54.696Z,3.90
2022-09-18T05:49:23.912Z,4.80
2022-09-18T05:51:55.012Z,3.50
2022-09-18T05:54:24.245Z,4.10
2022-09-18T05:56:54.532Z,4.90
2022-09-18T05:59:23.895Z,4.40
2022-09-18T06:01:53.214Z,4.20
2022-09-18T06:04:22.527Z,3.90
2022-09-18T06:06:51.733Z,4.60
2022-09-18T06:09:21.039Z,4.40
2022-09-18T06:11:50.313Z,4.20
2022-09-18T06:14:19.616Z,4.20
2022-09-18T06:16:48.730Z,3.50
2022-09-18T06:19:18.213Z,4.30
2022-09-18T06:21:47.499Z,3.90
2022-09-18T06:24:16.703Z,3.90
2022-09-18T06:26:45.920Z,4.10
2022-09-18T06:29:15.303Z,3.20
2022-09-18T06:31:44.578Z,5.00
2022-09-18T06:34:13.847Z,3.40
2022-09-18T06:36:43.907Z,4.80
2022-09-18T06:39:13.218Z,4.20
2022-09-18T06:41:43.636Z,3.20
2022-09-18T06:44:13.055Z,3.30
2022-09-18T06:46:42.576Z,3.50
2022-09-18T06:49:12.186Z,4.40
2022-09-18T06:51:41.580Z,3.50
2022-09-18T06:54:10.885Z,79.30
2022-09-18T06:56:40.174Z,175.80
2022-09-18T06:59:09.911Z,231.00
2022-09-18T07:01:39.822Z,317.70
2022-09-18T07:04:09.442Z,97.40
2022-09-18T07:06:38.602Z,64.40
2022-09-18T07:09:08.017Z,184.50
2022-09-18T07:11:37.215Z,190.50
2022-09-18T07:14:11.315Z,195.00
2022-09-18T07:16:40.938Z,155.90
2022-09-18T07:19:10.324Z,157.40
2022-09-18T07:21:40.560Z,151.30
2022-09-18T07:24:10.057Z,75.40
2022-09-18T07:26:39.364Z,82.90
2022-09-18T07:29:10.262Z,53.20
2022-09-18T07:31:40.749Z,56.40
2022-09-18T07:34:11.555Z,56.90
2022-09-18T07:36:40.966Z,56.30
2022-09-18T07:39:10.362Z,19.10
2022-09-18T07:41:39.804Z,13.50
2022-09-18T07:44:09.172Z,11.20
2022-09-18T07:46:38.554Z,12.30
2022-09-18T07:49:08.288Z,7.50
2022-09-18T07:51:37.992Z,5.30
2022-09-18T07:54:07.702Z,4.20
2022-09-18T07:56:36.903Z,4.30
2022-09-18T07:59:06.208Z,3.70
2022-09-18T08:01:36.072Z,5.00
2022-09-18T08:04:06.973Z,3.90
2022-09-18T08:06:36.038Z,3.10
2022-09-18T08:09:06.446Z,5.90
2022-09-18T08:11:35.771Z,3.20
2022-09-18T08:14:05.178Z,15.50
2022-09-18T08:16:34.498Z,21.80
2022-09-18T08:19:04.584Z,11.80
2022-09-18T08:21:33.718Z,7.70
2022-09-18T08:24:04.294Z,8.30
2022-09-18T08:26:36.499Z,9.20
2022-09-18T08:29:07.376Z,10.00
2022-09-18T08:31:36.775Z,5.40
2022-09-18T08:34:06.063Z,8.10
2022-09-18T08:36:35.336Z,7.20
2022-09-18T08:39:04.787Z,5.00
2022-09-18T08:41:39.294Z,5.70
2022-09-18T08:44:13.476Z,5.30
2022-09-18T08:49:48.323Z,34.90
2022-09-18T08:52:21.438Z,20.80
2022-09-18T08:55:05.757Z,9.30
2022-09-18T08:57:46.871Z,12.60
2022-09-18T09:00:22.703Z,8.60
2022-09-18T09:02:56.504Z,26.40
2022-09-18T09:05:38.813Z,46.50
2022-09-18T09:08:20.502Z,16.40
2022-09-18T09:11:18.023Z,25.30
2022-09-18T09:13:58.633Z,18.40
2022-09-18T09:16:45.975Z,11.20
2022-09-18T09:19:47.215Z,14.60
2022-09-18T09:22:20.927Z,14.90
2022-09-18T09:25:11.813Z,16.60
2022-09-18T09:27:53.584Z,4.80
2022-09-18T09:30:23.396Z,5.30
2022-09-18T09:33:17.508Z,4.70
2022-09-18T09:35:54.740Z,4.80
2022-09-18T09:38:46.437Z,4.20
2022-09-18T09:41:31.855Z,3.90
2022-09-18T09:44:21.524Z,4.00
2022-09-18T09:47:05.196Z,3.40
2022-09-18T09:49:38.493Z,5.30
2022-09-18T09:52:16.787Z,3.50
2022-09-18T09:54:46.008Z,3.30
2022-09-18T09:57:40.097Z,3.40
2022-09-18T10:00:20.700Z,4.50
2022-09-18T10:03:04.808Z,4.30
2022-09-18T10:05:43.225Z,4.90
2022-09-18T10:08:36.881Z,4.50
2022-09-18T10:11:12.147Z,5.90
2022-09-18T10:13:53.298Z,4.80
2022-09-18T10:16:24.402Z,4.60
2022-09-18T10:18:53.959Z,4.10
2022-09-18T10:21:27.575Z,4.20
2022-09-18T10:24:03.025Z,4.10
2022-09-18T10:26:55.553Z,4.30
2022-09-18T10:29:25.504Z,6.10
2022-09-18T10:31:57.299Z,4.40
2022-09-18T10:34:50.767Z,5.50
2022-09-18T10:37:29.408Z,5.10
2022-09-18T10:40:01.741Z,4.10
2022-09-18T10:42:33.769Z,4.30
2022-09-18T10:45:21.379Z,27.80
2022-09-18T10:47:51.381Z,25.00
2022-09-18T10:50:20.889Z,14.60
2022-09-18T10:52:50.610Z,11.80
2022-09-18T10:55:28.698Z,13.60
2022-09-18T10:57:58.123Z,10.40
2022-09-18T11:00:30.056Z,13.20
2022-09-18T11:03:20.204Z,15.60
2022-09-18T11:06:24.697Z,20.70
2022-09-18T11:08:57.577Z,13.90
2022-09-18T11:11:42.977Z,9.60
2022-09-18T11:14:26.630Z,10.00
2022-09-18T11:17:01.938Z,20.20
2022-09-18T11:19:35.541Z,11.90
2022-09-18T11:22:07.553Z,36.20
2022-09-18T11:24:39.053Z,15.90
2022-09-18T11:27:22.821Z,7.30
2022-09-18T11:29:52.025Z,6.40
2022-09-18T11:32:30.957Z,5.20
2022-09-18T11:35:05.134Z,5.10
2022-09-18T11:37:59.633Z,4.20
2022-09-18T11:40:52.473Z,8.40
2022-09-18T11:43:26.301Z,4.70
2022-09-18T11:46:13.740Z,4.80
2022-09-18T11:48:55.094Z,4.30
2022-09-18T11:51:41.097Z,4.20
2022-09-18T11:54:39.575Z,4.50
2022-09-18T11:57:24.937Z,4.40
2022-09-18T12:00:18.114Z,5.20
2022-09-18T12:02:53.839Z,5.30
2022-09-18T12:05:35.140Z,3.70
2022-09-18T12:08:35.848Z,5.20
2022-09-18T12:11:14.333Z,4.50
2022-09-18T12:14:05.617Z,7.40
2022-09-18T12:17:00.263Z,4.30
2022-09-18T12:19:41.344Z,4.40
2022-09-18T12:22:34.825Z,4.40
2022-09-18T12:25:12.352Z,3.90
2022-09-18T12:28:04.589Z,4.20
2022-09-18T12:31:04.480Z,3.20
2022-09-18T12:33:42.205Z,4.00
2022-09-18T12:36:32.967Z,5.60
2022-09-18T12:39:13.007Z,4.90
2022-09-18T12:41:51.010Z,4.10
2022-09-18T12:44:38.078Z,3.80
2022-09-18T12:47:25.286Z,4.70
2022-09-18T12:50:27.038Z,4.30
2022-09-18T12:53:21.509Z,4.50
2022-09-18T12:56:11.281Z,4.30
2022-09-18T12:59:02.335Z,3.90
2022-09-18T13:01:46.983Z,4.00
2022-09-18T13:04:25.096Z,4.50
2022-09-18T13:07:04.026Z,4.70
2022-09-18T13:10:15.387Z,4.20
2022-09-18T13:13:06.816Z,4.70
2022-09-18T13:15:48.417Z,5.80
2022-09-18T13:18:51.081Z,4.40
2022-09-18T13:21:31.763Z,3.70
2022-09-18T13:24:02.594Z,4.50
2022-09-18T13:26:36.732Z,3.90
2022-09-18T13:29:44.102Z,5.10
2022-09-18T13:32:15.830Z,4.70
2022-09-18T13:34:57.365Z,4.40
2022-09-18T13:37:29.427Z,4.50
2022-09-18T13:40:34.373Z,4.70
2022-09-18T13:43:24.862Z,5.10
2022-09-18T13:45:58.653Z,4.60
2022-09-18T13:48:49.748Z,6.40
2022-09-18T13:51:31.426Z,4.40
2022-09-18T13:54:13.414Z,4.70
2022-09-18T13:57:05.216Z,4.30
2022-09-18T13:59:55.067Z,4.80
2022-09-18T14:02:31.526Z,6.80
2022-09-18T14:05:05.950Z,4.80
2022-09-18T14:07:35.317Z,4.10
2022-09-18T14:10:21.425Z,4.00
2022-09-18T14:12:56.751Z,6.30
2022-09-18T14:15:26.783Z,4.50
2022-09-18T14:18:15.036Z,5.10
2022-09-18T14:20:51.435Z,8.20
2022-09-18T14:23:36.171Z,4.80
2022-09-18T14:26:34.580Z,4.70
2022-09-18T14:29:10.781Z,4.70
2022-09-18T14:31:50.752Z,5.30
2022-09-18T14:34:39.603Z,5.00
2022-09-18T14:37:29.740Z,4.10
2022-09-18T14:39:59.681Z,5.20
2022-09-18T14:42:37.342Z,4.60
2022-09-18T14:45:13.082Z,4.50
2022-09-18T14:47:44.542Z,5.20
2022-09-18T14:50:22.936Z,5.00
2022-09-18T14:52:52.165Z,4.30
2022-09-18T14:55:28.905Z,5.40
2022-09-18T14:58:09.268Z,4.60
2022-09-18T15:00:39.563Z,4.70
2022-09-18T15:03:18.969Z,4.50
2022-09-18T15:05:52.837Z,4.30
2022-09-18T15:08:27.005Z,4.40
2022-09-18T15:10:58.819Z,4.60
2022-09-18T15:13:32.053Z,4.50
2022-09-18T15:16:05.511Z,5.20
2022-09-18T15:18:44.096Z,5.20
2022-09-18T15:21:33.523Z,4.70
2022-09-18T15:24:04.341Z,4.70
2022-09-18T15:26:53.246Z,4.80
2022-09-18T15:29:48.888Z,4.70
2022-09-18T15:32:26.629Z,4.30
2022-09-18T15:34:56.848Z,4.00
2022-09-18T15:37:27.738Z,4.30
2022-09-18T15:40:07.735Z,4.60
2022-09-18T15:42:41.779Z,4.10
2022-09-18T15:47:49.272Z,4.10
2022-09-18T15:50:18.783Z,5.60
2022-09-18T15:53:20.153Z,4.00
2022-09-18T15:55:56.618Z,4.00
2022-09-18T15:58:37.546Z,5.60
2022-09-18T16:01:14.838Z,4.30
2022-09-18T16:03:44.510Z,4.50
2022-09-18T16:06:27.994Z,4.60
2022-09-18T16:08:58.214Z,4.70
2022-09-18T16:11:53.610Z,5.00
2022-09-18T16:14:45.904Z,4.20
2022-09-18T16:17:34.826Z,4.80
2022-09-18T16:20:29.148Z,3.80
2022-09-18T16:23:16.403Z,3.80
2022-09-18T16:25:47.841Z,4.70
2022-09-18T16:28:28.291Z,4.40
2022-09-18T16:30:57.847Z,3.80
2022-09-18T16:33:32.319Z,3.90
2022-09-18T16:36:09.250Z,4.60
2022-09-18T16:38:38.550Z,5.30
2022-09-18T16:41:10.461Z,4.50
2022-09-18T16:43:39.825Z,4.20
2022-09-18T16:46:09.653Z,3.90
2022-09-18T16:48:39.166Z,4.50
2022-09-18T16:51:08.479Z,4.30
2022-09-18T16:53:38.878Z,3.80
2022-09-18T16:56:13.022Z,4.90
2022-09-18T16:58:43.205Z,4.10
2022-09-18T17:01:12.471Z,3.90
2022-09-18T17:03:41.697Z,4.40
2022-09-18T17:06:11.313Z,3.80
2022-09-18T17:08:42.990Z,4.60
2022-09-18T17:11:16.056Z,4.70
2022-09-18T17:13:45.626Z,4.00
2022-09-18T17:16:26.073Z,3.70
2022-09-18T17:19:04.440Z,4.10
2022-09-18T17:21:34.012Z,4.20
2022-09-18T17:24:04.386Z,4.40
2022-09-18T17:26:35.619Z,4.90
2022-09-18T17:29:05.450Z,4.80
2022-09-18T17:31:34.499Z,4.10
2022-09-18T17:34:03.820Z,4.40
2022-09-18T17:36:33.282Z,3.60
2022-09-18T17:39:04.803Z,6.10
2022-09-18T17:41:34.633Z,4.20
2022-09-18T17:44:05.085Z,4.10
2022-09-18T17:46:34.542Z,4.00
2022-09-18T17:49:03.875Z,4.20
2022-09-18T17:51:34.041Z,3.80
2022-09-18T17:54:05.519Z,4.00
2022-09-18T17:56:35.149Z,4.20
2022-09-18T17:59:07.541Z,3.70
2022-09-18T18:01:40.513Z,4.70
2022-09-18T18:04:14.279Z,4.00
2022-09-18T18:06:50.058Z,4.30
2022-09-18T18:09:19.891Z,4.00
2022-09-18T18:11:50.165Z,3.50
2022-09-18T18:14:19.722Z,3.80
2022-09-18T18:16:52.483Z,4.00
2022-09-18T18:19:22.867Z,4.20
2022-09-18T18:21:52.988Z,3.50
2022-09-18T18:24:23.070Z,4.80
2022-09-18T18:26:55.692Z,4.10
2022-09-18T18:29:26.012Z,4.90
2022-09-18T18:31:55.659Z,4.20
2022-09-18T18:34:25.850Z,4.90
2022-09-18T18:36:55.200Z,4.10
2022-09-18T18:39:23.933Z,4.90
2022-09-18T18:41:54.185Z,3.60
2022-09-18T18:44:23.776Z,4.00
2022-09-18T18:46:53.177Z,3.50
2022-09-18T18:49:22.493Z,4.50
2022-09-18T18:51:52.468Z,4.00
2022-09-18T18:54:22.685Z,4.70
2022-09-18T18:56:52.336Z,4.20
2022-09-18T18:59:22.714Z,3.60
2022-09-18T19:02:00.767Z,4.20
2022-09-18T19:04:30.451Z,4.40
2022-09-18T19:06:59.660Z,6.10
2022-09-18T19:09:30.891Z,4.90
2022-09-18T19:12:01.669Z,4.00
2022-09-18T19:14:34.210Z,3.60
2022-09-18T19:17:03.549Z,3.40
2022-09-18T19:19:32.614Z,4.70
